createdAt,value
2022-08-25T00:00:26.750Z,4.57
2022-08-25T00:03:29.044Z,4.60
2022-08-25T00:06:38.924Z,3.58
2022-08-25T00:12:42.014Z,4.07
2022-08-25T00:15:43.615Z,5.43
2022-08-25T00:18:48.326Z,7.45
2022-08-25T00:21:49.903Z,4.90
2022-08-25T00:24:51.451Z,4.10
2022-08-25T00:27:53.036Z,4.38
2022-08-25T00:30:54.700Z,3.92
2022-08-25T00:33:56.264Z,3.42
2022-08-25T00:36:57.888Z,7.85
2022-08-25T00:39:59.506Z,3.80
2022-08-25T00:43:01.098Z,3.83
2022-08-25T00:46:02.932Z,5.68
2022-08-25T00:49:24.727Z,4.88
2022-08-25T00:52:35.957Z,4.53
2022-08-25T00:55:40.215Z,6.57
2022-08-25T00:58:42.749Z,3.85
2022-08-25T01:01:44.520Z,5.05
2022-08-25T01:04:49.139Z,5.22
2022-08-25T01:07:52.442Z,4.70
2022-08-25T01:11:04.830Z,4.20
2022-08-25T01:14:07.112Z,4.28
2022-08-25T01:17:09.592Z,5.25
2022-08-25T01:20:11.513Z,4.40
2022-08-25T01:23:13.063Z,4.97
2022-08-25T01:26:25.157Z,4.85
2022-08-25T01:29:33.145Z,5.50
2022-08-25T01:32:34.985Z,5.40
2022-08-25T01:35:36.756Z,7.85
2022-08-25T01:38:38.400Z,5.93
2022-08-25T01:41:40.011Z,4.25
2022-08-25T01:44:45.057Z,6.22
2022-08-25T01:47:46.641Z,5.13
2022-08-25T01:50:48.412Z,5.28
2022-08-25T01:53:50.888Z,4.75
2022-08-25T01:56:52.518Z,5.80
2022-08-25T01:59:54.337Z,5.03
2022-08-25T02:02:56.140Z,5.57
2022-08-25T02:06:01.267Z,6.63
2022-08-25T02:09:09.566Z,6.50
2022-08-25T02:12:11.296Z,7.80
2022-08-25T02:15:12.869Z,6.72
2022-08-25T02:18:14.478Z,7.55
2022-08-25T02:21:16.467Z,9.48
2022-08-25T02:24:18.764Z,7.78
2022-08-25T02:27:20.363Z,7.63
2022-08-25T02:30:22.115Z,6.85
2022-08-25T02:33:23.724Z,5.63
2022-08-25T02:36:25.450Z,5.53
2022-08-25T02:39:27.065Z,7.55
2022-08-25T02:42:29.389Z,5.93
2022-08-25T02:45:31.105Z,8.40
2022-08-25T02:48:32.675Z,7.95
2022-08-25T02:51:35.006Z,6.32
2022-08-25T02:54:36.889Z,6.45
2022-08-25T02:57:38.460Z,7.53
2022-08-25T03:00:40.183Z,8.27
2022-08-25T03:03:44.518Z,7.18
2022-08-25T03:06:46.448Z,6.78
2022-08-25T03:09:48.396Z,7.57
2022-08-25T03:12:50.148Z,6.90
2022-08-25T03:15:52.256Z,6.50
2022-08-25T03:18:53.836Z,8.43
2022-08-25T03:21:56.936Z,5.60
2022-08-25T03:25:23.499Z,5.85
2022-08-25T03:28:30.105Z,6.60
2022-08-25T03:31:34.190Z,7.47
2022-08-25T03:34:35.953Z,5.97
2022-08-25T03:37:38.041Z,5.55
2022-08-25T03:40:39.588Z,5.75
2022-08-25T03:43:41.523Z,6.30
2022-08-25T03:46:46.301Z,7.50
2022-08-25T03:49:47.919Z,6.82
2022-08-25T03:52:55.224Z,6.60
2022-08-25T03:55:57.665Z,8.93
2022-08-25T03:58:59.353Z,6.32
2022-08-25T04:02:02.867Z,9.02
2022-08-25T04:05:04.826Z,7.40
2022-08-25T04:08:07.196Z,6.68
2022-08-25T04:11:18.384Z,7.63
2022-08-25T04:14:21.343Z,8.07
2022-08-25T04:17:22.982Z,7.00
2022-08-25T04:20:24.564Z,6.50
2022-08-25T04:23:26.119Z,6.68
2022-08-25T04:26:34.792Z,8.70
2022-08-25T04:29:36.352Z,7.97
2022-08-25T04:32:37.974Z,7.78
2022-08-25T04:35:41.155Z,6.22
2022-08-25T04:38:44.492Z,6.82
2022-08-25T04:41:47.443Z,6.72
2022-08-25T04:44:49.983Z,7.88
2022-08-25T04:47:54.841Z,7.13
2022-08-25T04:50:56.723Z,6.78
2022-08-25T04:54:01.203Z,7.35
2022-08-25T04:57:02.855Z,8.25
2022-08-25T05:00:05.875Z,8.13
2022-08-25T05:06:13.967Z,7.43
2022-08-25T05:09:19.845Z,9.88
2022-08-25T05:12:23.474Z,9.27
2022-08-25T05:15:45.316Z,9.30
2022-08-25T05:18:48.984Z,8.95
2022-08-25T05:21:51.137Z,8.20
2022-08-25T05:24:53.091Z,9.80
2022-08-25T05:27:54.756Z,9.77
2022-08-25T05:31:02.682Z,10.55
2022-08-25T05:34:08.226Z,8.32
2022-08-25T05:37:12.175Z,10.27
2022-08-25T05:40:14.043Z,9.98
2022-08-25T05:43:15.756Z,10.65
2022-08-25T05:46:19.494Z,12.38
2022-08-25T05:49:21.146Z,7.47
2022-08-25T05:52:22.952Z,7.80
2022-08-25T05:55:24.587Z,10.82
2022-08-25T05:58:28.323Z,7.32
2022-08-25T06:01:48.696Z,8.45
2022-08-25T06:04:50.339Z,9.73
2022-08-25T06:07:52.833Z,8.32
2022-08-25T06:10:54.380Z,7.75
2022-08-25T06:13:57.158Z,11.02
2022-08-25T06:17:00.274Z,8.07
2022-08-25T06:20:03.483Z,10.35
2022-08-25T06:23:05.100Z,9.23
2022-08-25T06:26:09.832Z,12.95
2022-08-25T06:29:14.998Z,10.70
2022-08-25T06:32:16.561Z,14.15
2022-08-25T06:35:19.807Z,31.42
2022-08-25T06:38:21.964Z,16.95
2022-08-25T06:41:23.510Z,15.80
2022-08-25T06:44:25.098Z,18.45
2022-08-25T06:47:27.136Z,12.05
2022-08-25T06:50:28.703Z,17.20
2022-08-25T06:53:30.332Z,17.10
2022-08-25T06:56:32.777Z,24.80
2022-08-25T06:59:35.470Z,19.55
2022-08-25T07:02:38.485Z,23.30
2022-08-25T07:05:43.942Z,18.40
2022-08-25T07:08:47.099Z,19.05
2022-08-25T07:11:48.766Z,21.35
2022-08-25T07:15:09.994Z,20.23
2022-08-25T07:18:12.850Z,14.27
2022-08-25T07:21:14.980Z,16.57
2022-08-25T07:24:16.768Z,14.05
2022-08-25T07:27:18.374Z,15.25
2022-08-25T07:30:20.341Z,14.70
2022-08-25T07:33:22.715Z,10.75
2022-08-25T07:36:26.174Z,11.07
2022-08-25T07:39:29.048Z,9.80
2022-08-25T07:42:31.661Z,8.90
2022-08-25T07:45:35.635Z,7.70
2022-08-25T07:48:37.937Z,8.40
2022-08-25T07:54:41.975Z,11.63
2022-08-25T07:57:43.646Z,10.35
2022-08-25T08:00:48.382Z,10.00
2022-08-25T08:03:53.112Z,7.40
2022-08-25T08:10:11.912Z,10.82
2022-08-25T08:13:18.681Z,11.18
2022-08-25T08:16:22.743Z,7.03
2022-08-25T08:19:24.602Z,8.10
2022-08-25T08:22:27.173Z,10.10
2022-08-25T08:25:29.278Z,8.27
2022-08-25T08:28:31.241Z,8.15
2022-08-25T08:31:32.919Z,8.10
2022-08-25T08:34:35.350Z,8.00
2022-08-25T08:37:42.005Z,8.73
2022-08-25T08:41:21.806Z,8.00
2022-08-25T08:44:46.517Z,7.93
2022-08-25T08:48:18.896Z,9.35
2022-08-25T08:51:33.094Z,8.10
2022-08-25T08:54:41.243Z,6.30
2022-08-25T09:00:58.185Z,7.43
2022-08-25T09:04:08.478Z,6.65
2022-08-25T09:07:19.046Z,7.90
2022-08-25T09:10:24.433Z,6.75
2022-08-25T09:13:45.109Z,7.95
2022-08-25T09:17:00.852Z,6.90
2022-08-25T09:20:18.168Z,7.85
2022-08-25T09:24:06.109Z,6.40
2022-08-25T09:27:31.821Z,7.75
2022-08-25T09:30:45.103Z,7.97
2022-08-25T09:33:46.787Z,8.90
2022-08-25T09:36:52.806Z,6.57
2022-08-25T09:39:55.158Z,7.15
2022-08-25T09:43:05.643Z,7.57
2022-08-25T09:46:24.074Z,8.65
2022-08-25T09:49:35.644Z,8.00
2022-08-25T09:52:41.370Z,8.98
2022-08-25T09:55:46.605Z,7.20
2022-08-25T09:58:48.751Z,7.13
2022-08-25T10:04:55.031Z,7.78
2022-08-25T10:08:00.037Z,9.40
2022-08-25T10:11:09.017Z,9.13
2022-08-25T10:14:18.858Z,7.57
2022-08-25T10:17:30.934Z,9.13
2022-08-25T10:20:35.455Z,8.90
2022-08-25T10:23:50.067Z,7.13
2022-08-25T10:26:58.868Z,8.50
2022-08-25T10:30:19.424Z,7.47
2022-08-25T10:33:29.956Z,9.07
2022-08-25T10:36:46.932Z,8.25
2022-08-25T10:40:02.779Z,6.93
2022-08-25T10:43:19.123Z,9.02
2022-08-25T10:46:27.832Z,9.30
2022-08-25T10:49:46.212Z,7.40
2022-08-25T10:53:01.670Z,6.80
2022-08-25T10:56:24.663Z,7.05
2022-08-25T10:59:50.999Z,7.75
2022-08-25T11:03:13.461Z,10.43
2022-08-25T11:06:26.565Z,8.05
2022-08-25T11:09:33.287Z,8.23
2022-08-25T11:12:54.306Z,6.55
2022-08-25T11:16:18.560Z,9.68
2022-08-25T11:19:24.806Z,10.35
2022-08-25T11:22:36.077Z,10.57
2022-08-25T11:25:42.923Z,9.07
2022-08-25T11:29:12.588Z,7.38
2022-08-25T11:32:15.363Z,8.45
2022-08-25T11:35:20.920Z,7.28
2022-08-25T11:38:41.776Z,7.60
2022-08-25T11:41:58.565Z,10.95
2022-08-25T11:45:12.804Z,11.60
2022-08-25T11:48:31.282Z,7.22
2022-08-25T11:51:43.968Z,6.85
2022-08-25T11:54:48.366Z,7.78
2022-08-25T11:57:53.608Z,11.88
2022-08-25T12:00:58.467Z,8.07
2022-08-25T12:04:44.516Z,9.45
2022-08-25T12:07:47.003Z,8.93
2022-08-25T12:11:02.045Z,7.45
2022-08-25T12:14:31.860Z,8.73
2022-08-25T12:17:39.719Z,8.38
2022-08-25T12:20:53.797Z,7.57
2022-08-25T12:24:10.145Z,8.45
2022-08-25T12:27:26.833Z,9.07
2022-08-25T12:30:43.753Z,8.50
2022-08-25T12:34:16.272Z,7.68
2022-08-25T12:37:22.010Z,9.75
2022-08-25T12:40:32.586Z,8.82
2022-08-25T12:43:40.281Z,8.88
2022-08-25T12:46:44.718Z,10.52
2022-08-25T12:49:46.535Z,8.65
2022-08-25T12:52:52.527Z,7.90
2022-08-25T12:56:10.407Z,7.60
2022-08-25T12:59:21.794Z,8.05
2022-08-25T13:02:52.748Z,8.00
2022-08-25T13:06:13.591Z,8.48
2022-08-25T13:12:34.197Z,10.07
2022-08-25T13:15:41.945Z,8.57
2022-08-25T13:18:51.304Z,7.30
2022-08-25T13:21:56.056Z,6.65
2022-08-25T13:28:05.892Z,7.68
2022-08-25T13:31:15.851Z,7.43
2022-08-25T13:34:20.043Z,10.00
2022-08-25T13:37:32.327Z,9.48
2022-08-25T13:40:36.543Z,8.43
2022-08-25T13:43:39.953Z,8.75
2022-08-25T13:46:43.750Z,7.28
2022-08-25T13:49:47.332Z,8.65
2022-08-25T13:52:56.105Z,6.25
2022-08-25T13:55:59.648Z,6.50
2022-08-25T13:59:03.687Z,6.88
2022-08-25T14:02:06.817Z,6.38
2022-08-25T14:05:10.761Z,6.45
2022-08-25T14:08:40.359Z,7.30
2022-08-25T14:11:56.613Z,6.32
2022-08-25T14:15:10.477Z,6.28
2022-08-25T14:18:20.771Z,7.28
2022-08-25T14:21:30.945Z,5.93
2022-08-25T14:24:39.285Z,6.55
2022-08-25T14:28:03.524Z,6.30
2022-08-25T14:31:09.908Z,7.55
2022-08-25T14:34:29.023Z,6.00
2022-08-25T14:37:32.436Z,6.07
2022-08-25T14:40:35.558Z,6.47
2022-08-25T14:43:37.191Z,5.93
2022-08-25T14:46:57.917Z,6.10
2022-08-25T14:50:01.221Z,7.20
2022-08-25T14:53:04.285Z,7.28
2022-08-25T14:56:09.233Z,6.13
2022-08-25T14:59:12.144Z,5.72
2022-08-25T15:02:20.061Z,5.97
2022-08-25T15:05:27.026Z,5.95
2022-08-25T15:08:49.090Z,6.78
2022-08-25T15:11:54.696Z,6.07
2022-08-25T15:14:57.106Z,5.75
2022-08-25T15:18:01.235Z,6.10
2022-08-25T15:21:03.140Z,7.45
2022-08-25T15:24:05.633Z,5.82
2022-08-25T15:27:10.106Z,5.93
2022-08-25T15:30:13.044Z,5.93
2022-08-25T15:33:14.761Z,5.90
2022-08-25T15:36:20.758Z,6.68
2022-08-25T15:39:22.442Z,5.75
2022-08-25T15:42:25.454Z,6.00
2022-08-25T15:45:28.052Z,6.80
2022-08-25T15:48:29.736Z,5.25
2022-08-25T15:51:31.515Z,5.55
2022-08-25T15:57:35.049Z,5.22
2022-08-25T16:00:41.341Z,6.65
2022-08-25T16:03:43.602Z,5.25
2022-08-25T16:06:45.810Z,9.68
2022-08-25T16:09:49.462Z,5.53
2022-08-25T16:12:52.826Z,7.07
2022-08-25T16:15:55.073Z,6.63
2022-08-25T16:18:57.430Z,6.35
2022-08-25T16:22:00.538Z,5.00
2022-08-25T16:25:02.787Z,5.40
2022-08-25T16:28:04.446Z,5.30
2022-08-25T16:31:09.343Z,4.97
2022-08-25T16:34:12.075Z,6.28
2022-08-25T16:37:13.782Z,5.10
2022-08-25T16:40:17.146Z,5.72
2022-08-25T16:43:18.975Z,5.28
2022-08-25T16:46:23.952Z,7.20
2022-08-25T16:49:25.679Z,5.07
2022-08-25T16:52:45.694Z,4.82
2022-08-25T16:55:47.346Z,6.57
2022-08-25T16:58:49.188Z,5.72
2022-08-25T17:01:54.563Z,5.40
2022-08-25T17:04:56.412Z,5.30
2022-08-25T17:08:20.617Z,6.45
2022-08-25T17:11:29.312Z,6.55
2022-08-25T17:14:31.268Z,5.35
2022-08-25T17:17:36.048Z,5.38
2022-08-25T17:20:38.791Z,5.13
2022-08-25T17:23:43.299Z,4.95
2022-08-25T17:26:49.901Z,6.00
2022-08-25T17:29:51.548Z,8.93
2022-08-25T17:32:53.223Z,7.00
2022-08-25T17:35:56.652Z,4.60
2022-08-25T17:38:58.426Z,6.07
2022-08-25T17:42:00.050Z,6.15
2022-08-25T17:45:03.028Z,5.82
2022-08-25T17:48:07.459Z,4.88
2022-08-25T17:51:10.932Z,6.10
2022-08-25T17:54:13.314Z,6.50
2022-08-25T17:57:16.282Z,4.95
2022-08-25T18:00:20.581Z,5.53
2022-08-25T18:03:22.524Z,6.47
2022-08-25T18:06:27.611Z,5.22
2022-08-25T18:09:29.315Z,6.68
2022-08-25T18:12:30.956Z,4.75
2022-08-25T18:15:33.447Z,5.78
2022-08-25T18:18:36.496Z,7.15
2022-08-25T18:21:39.250Z,5.40
2022-08-25T18:24:40.929Z,7.25
2022-08-25T18:27:42.908Z,8.45
2022-08-25T18:30:44.637Z,8.63
2022-08-25T18:33:46.329Z,6.20
2022-08-25T18:36:48.844Z,7.93
2022-08-25T18:40:12.343Z,7.05
2022-08-25T18:43:15.725Z,6.07
2022-08-25T18:46:17.351Z,7.90
2022-08-25T18:49:26.923Z,6.65
2022-08-25T18:52:30.608Z,6.57
2022-08-25T18:55:33.058Z,7.28
2022-08-25T18:58:34.939Z,8.00
2022-08-25T19:01:38.014Z,7.70
2022-08-25T19:04:40.655Z,7.05
2022-08-25T19:07:43.921Z,9.70
2022-08-25T19:10:49.494Z,9.45
2022-08-25T19:13:51.352Z,7.03
2022-08-25T19:16:54.625Z,13.85
2022-08-25T19:19:58.666Z,6.78
2022-08-25T19:23:01.035Z,7.75
2022-08-25T19:26:02.617Z,6.85
2022-08-25T19:29:09.351Z,7.85
2022-08-25T19:32:12.616Z,6.78
2022-08-25T19:35:27.027Z,8.73
2022-08-25T19:38:33.880Z,7.82
2022-08-25T19:41:35.948Z,6.95
2022-08-25T19:44:37.898Z,6.90
2022-08-25T19:47:43.534Z,10.48
2022-08-25T19:50:45.291Z,6.22
2022-08-25T19:53:49.111Z,11.45
2022-08-25T19:56:57.294Z,11.25
2022-08-25T19:59:59.208Z,8.93
2022-08-25T20:03:01.816Z,7.10
2022-08-25T20:06:03.519Z,7.10
2022-08-25T20:09:06.011Z,6.78
2022-08-25T20:12:09.502Z,8.02
2022-08-25T20:15:12.869Z,7.05
2022-08-25T20:18:14.558Z,8.07
2022-08-25T20:21:16.419Z,8.48
2022-08-25T20:24:36.725Z,6.60
2022-08-25T20:27:43.829Z,8.57
2022-08-25T20:30:46.284Z,8.10
2022-08-25T20:33:47.852Z,8.17
2022-08-25T20:36:50.960Z,9.27
2022-08-25T20:39:52.950Z,7.22
2022-08-25T20:42:55.736Z,9.07
2022-08-25T20:46:02.514Z,9.20
2022-08-25T20:49:04.680Z,6.10
2022-08-25T20:52:07.485Z,8.45
2022-08-25T20:55:10.100Z,6.97
2022-08-25T21:01:22.870Z,7.35
2022-08-25T21:04:27.272Z,9.00
2022-08-25T21:07:28.939Z,8.75
2022-08-25T21:10:33.110Z,8.13
2022-08-25T21:13:35.847Z,9.32
2022-08-25T21:16:38.705Z,7.27
2022-08-25T21:19:41.902Z,6.95
2022-08-25T21:25:45.653Z,10.73
2022-08-25T21:28:47.861Z,9.30
2022-08-25T21:31:50.448Z,7.25
2022-08-25T21:34:55.568Z,9.15
2022-08-25T21:37:57.943Z,9.60
2022-08-25T21:40:59.589Z,8.88
2022-08-25T21:44:01.907Z,8.75
2022-08-25T21:47:04.263Z,9.38
2022-08-25T21:50:06.185Z,7.10
2022-08-25T21:53:09.374Z,7.95
2022-08-25T21:56:16.015Z,7.22
2022-08-25T21:59:24.367Z,8.63
2022-08-25T22:02:26.034Z,6.78
2022-08-25T22:05:28.493Z,8.40
2022-08-25T22:08:32.739Z,8.50
2022-08-25T22:11:35.964Z,9.65
2022-08-25T22:14:38.202Z,8.55
2022-08-25T22:17:40.505Z,7.47
2022-08-25T22:20:42.108Z,9.55
2022-08-25T22:23:44.485Z,7.45
2022-08-25T22:26:47.709Z,8.98
2022-08-25T22:29:50.860Z,10.90
2022-08-25T22:32:52.725Z,8.32
2022-08-25T22:35:59.673Z,7.70
2022-08-25T22:39:04.406Z,8.60
2022-08-25T22:42:06.285Z,8.55
2022-08-25T22:45:09.692Z,8.57
2022-08-25T22:48:12.126Z,8.57
2022-08-25T22:51:16.529Z,8.73
2022-08-25T22:54:18.267Z,8.57
2022-08-25T22:57:20.045Z,8.65
2022-08-25T23:00:21.946Z,9.70
2022-08-25T23:03:25.093Z,11.30
2022-08-25T23:06:28.045Z,10.48
2022-08-25T23:12:32.264Z,7.20
2022-08-25T23:15:34.346Z,8.30
2022-08-25T23:18:41.823Z,9.35
2022-08-25T23:22:04.443Z,8.88
2022-08-25T23:25:06.744Z,11.70
2022-08-25T23:28:09.391Z,8.38
2022-08-25T23:31:12.915Z,8.50
2022-08-25T23:34:15.777Z,9.48
2022-08-25T23:37:18.674Z,8.38
2022-08-25T23:40:21.149Z,10.45
2022-08-25T23:43:24.619Z,9.02
2022-08-25T23:46:28.982Z,9.20
2022-08-25T23:49:30.582Z,10.52
2022-08-25T23:52:32.173Z,11.27
2022-08-25T23:55:34.037Z,9.30
2022-08-25T23:58:35.948Z,11.32
